.
WxDataArchive / Data Records for 2014-01-04
2014-01-03 January 2014 2014-01-05

Data Records for Saturday, 04 January 2014

Time	Temp	Chill	HIndex	Humid	Dewpt	 Wind 	HiWind	WindDir	Rain 	Barom 
-----	----	-----	------	-----	-----	------	------	-------	-----	----- 
00:00	12.8	12.8	12.8	69	4.6	2	7	112	0.00	30.189 
00:05	12.8	12.8	12.8	69	4.6	2	6	90	0.00	30.189 
00:10	12.8	12.8	12.8	69	4.6	2	5	90	0.00	30.189 
00:15	12.8	12.8	12.8	69	4.6	2	9	112	0.00	30.183 
00:20	12.8	12.8	12.8	69	4.6	2	5	90	0.00	30.183 
00:25	12.8	12.8	12.8	69	4.6	1	6	68	0.00	30.183 
00:30	12.8	12.8	12.8	69	4.6	2	5	68	0.00	30.176 
00:35	12.8	12.8	12.8	69	4.6	1	7	68	0.00	30.176 
00:40	12.8	12.8	12.8	69	4.6	1	4	68	0.00	30.176 
00:45	12.8	12.8	12.8	69	4.6	1	4	90	0.00	30.173 
00:50	12.9	12.9	12.9	69	4.7	2	6	90	0.00	30.173 
00:55	12.9	12.9	12.9	69	4.7	2	5	90	0.00	30.173 
01:00	12.9	12.9	12.9	69	4.7	2	5	90	0.00	30.160 
01:05	13.1	13.1	13.1	69	4.9	2	5	90	0.00	30.160 
01:10	13.1	13.1	13.1	69	4.9	2	7	90	0.00	30.160 
01:15	13.1	13.1	13.1	68	4.6	1	5	90	0.00	30.154 
01:20	13.1	13.1	13.1	69	4.9	1	5	68	0.00	30.154 
01:25	13.1	13.1	13.1	69	4.9	2	6	112	0.00	30.154 
01:30	13.1	13.1	13.1	68	4.6	2	7	90	0.00	30.141 
01:35	13.3	13.3	13.3	68	4.7	2	6	112	0.00	30.141 
01:40	13.3	13.3	13.3	68	4.7	2	6	112	0.00	30.141 
01:45	13.3	13.3	13.3	68	4.7	1	5	68	0.00	30.137 
01:50	13.1	13.1	13.1	68	4.6	1	5	68	0.00	30.137 
01:55	13.1	13.1	13.1	68	4.6	1	5	112	0.00	30.137 
02:00	13.1	13.1	13.1	68	4.6	2	7	90	0.00	30.126 
02:05	13.1	13.1	13.1	68	4.6	1	5	90	0.00	30.126 
02:10	13.1	13.1	13.1	68	4.6	1	4	90	0.00	30.126 
02:15	13.1	13.1	13.1	68	4.6	1	4	90	0.00	30.124 
02:20	13.1	13.1	13.1	68	4.6	1	4	90	0.00	30.124 
02:25	13.1	13.1	13.1	68	4.6	1	6	90	0.00	30.124 
02:30	13.1	13.1	13.1	68	4.6	0	2	90	0.00	30.132 
02:35	13.1	13.1	13.1	69	4.9	0	2	90	0.00	30.132 
02:40	13.1	13.1	13.1	69	4.9	1	3	90	0.00	30.132 
02:45	13.5	13.5	13.5	68	4.9	2	7	90	0.00	30.127 
02:50	13.6	13.6	13.6	68	5.0	1	5	90	0.00	30.127 
02:55	13.8	13.8	13.8	68	5.2	2	7	112	0.00	30.127 
03:00	13.8	13.8	13.8	68	5.2	1	4	90	0.00	30.123 
03:05	13.8	13.8	13.8	68	5.2	2	5	45	0.00	30.123 
03:10	13.8	13.8	13.8	68	5.2	1	5	90	0.00	30.123 
03:15	13.8	13.8	13.8	68	5.2	1	5	90	0.00	30.115 
03:20	13.8	13.8	13.8	68	5.2	1	4	112	0.00	30.115 
03:25	14.0	14.0	14.0	67	5.1	1	4	112	0.00	30.115 
03:30	13.8	13.8	13.8	68	5.2	1	3	68	0.00	30.110 
03:35	14.0	14.0	14.0	68	5.4	1	5	22	0.00	30.110 
03:40	14.0	14.0	14.0	67	5.1	1	4	68	0.00	30.110 
03:45	14.0	14.0	14.0	67	5.1	1	4	68	0.00	30.106 
03:50	14.0	14.0	14.0	67	5.1	1	4	112	0.00	30.106 
03:55	14.0	14.0	14.0	68	5.4	0	3	112	0.00	30.106 
04:00	14.0	14.0	14.0	67	5.1	1	3	338	0.00	30.097 
04:05	14.0	14.0	14.0	67	5.1	0	2	338	0.00	30.097 
04:10	14.0	14.0	14.0	67	5.1	0	3	338	0.00	30.097 
04:15	14.0	14.0	14.0	67	5.1	0	3	45	0.00	30.091 
04:20	13.8	13.8	13.8	67	4.9	0	2	45	0.00	30.091 
04:25	14.0	14.0	14.0	67	5.1	0	5	22	0.00	30.091 
04:30	14.0	14.0	14.0	67	5.1	0	3	45	0.00	30.083 
04:35	14.1	14.1	14.1	67	5.2	0	3	270	0.00	30.083 
04:40	14.1	14.1	14.1	67	5.2	0	1	270	0.00	30.083 
04:45	14.1	14.1	14.1	67	5.2	0	2	270	0.00	30.075 
04:50	14.1	14.1	14.1	66	4.9	0	1	270	0.00	30.075 
04:55	14.1	14.1	14.1	66	4.9	0	3	270	0.00	30.075 
05:00	14.3	14.3	14.3	66	5.1	0	2	0	0.00	30.070 
05:05	14.3	14.3	14.3	66	5.1	0	2	338	0.00	30.070 
05:10	14.4	14.4	14.4	66	5.1	0	1	338	0.00	30.070 
05:15	14.6	14.6	14.6	65	5.0	0	2	0	0.00	30.062 
05:20	14.8	14.8	14.8	65	5.2	0	3	45	0.00	30.062 
05:25	15.1	15.1	15.1	65	5.5	0	3	45	0.00	30.062 
05:30	15.4	15.4	15.4	65	5.8	0	3	248	0.00	30.052 
05:35	15.9	15.9	15.9	64	5.9	0	3	248	0.00	30.052 
05:40	16.4	16.4	16.4	64	6.4	0	3	248	0.00	30.052 
05:45	16.7	16.7	16.7	63	6.3	1	7	248	0.00	30.049 
05:50	17.2	17.2	17.2	62	6.4	1	4	248	0.00	30.049 
05:55	17.3	17.3	17.3	62	6.5	0	3	248	0.00	30.049 
06:00	17.5	17.5	17.5	61	6.4	0	3	248	0.00	30.046 
06:05	17.7	17.7	17.7	61	6.6	0	2	248	0.00	30.046 
06:10	17.7	17.7	17.7	60	6.2	0	4	248	0.00	30.046 
06:15	17.7	17.7	17.7	60	6.2	1	4	248	0.00	30.041 
06:20	17.8	17.8	17.8	60	6.3	0	2	248	0.00	30.041 
06:25	17.8	17.8	17.8	60	6.3	0	4	90	0.00	30.041 
06:30	18.0	18.0	18.0	60	6.5	0	3	90	0.00	30.041 
06:35	18.1	18.1	18.1	60	6.6	0	3	90	0.00	30.041 
06:40	18.3	18.3	18.3	60	6.8	1	3	90	0.00	30.041 
06:45	18.4	18.4	18.4	60	6.9	0	3	248	0.00	30.040 
06:50	18.8	18.8	18.8	60	7.2	1	4	248	0.00	30.040 
06:55	18.9	18.9	18.9	60	7.3	0	3	248	0.00	30.040 
07:00	19.2	19.2	19.2	59	7.3	0	3	248	0.00	30.036 
07:05	19.5	19.5	19.5	59	7.5	1	4	270	0.00	30.036 
07:10	19.9	19.9	19.9	58	7.5	1	6	248	0.00	30.036 
07:15	20.0	20.0	20.0	58	7.6	1	3	248	0.00	30.026 
07:20	20.0	20.0	20.0	58	7.6	1	3	90	0.00	30.026 
07:25	20.0	20.0	20.0	58	7.6	0	4	292	0.00	30.026 
07:30	20.0	20.0	20.0	58	7.6	0	2	292	0.00	30.029 
07:35	20.2	20.2	20.2	58	7.8	1	4	270	0.00	30.029 
07:40	20.2	20.2	20.2	58	7.8	1	4	225	0.00	30.029 
07:45	20.3	20.3	20.3	58	7.9	1	4	270	0.00	30.021 
07:50	20.3	20.3	20.3	58	7.9	1	3	270	0.00	30.021 
07:55	20.5	20.5	20.5	57	7.7	1	4	248	0.00	30.021 
08:00	20.6	20.6	20.6	57	7.8	0	3	315	0.00	30.015 
08:05	20.8	20.8	20.8	58	8.4	0	3	248	0.00	30.015 
08:10	21.0	21.0	21.0	57	8.2	1	5	248	0.00	30.015 
08:15	21.1	21.1	21.1	57	8.3	1	5	270	0.00	30.019 
08:20	21.3	21.3	21.3	57	8.5	1	5	248	0.00	30.019 
08:25	21.4	21.4	21.4	57	8.6	1	6	248	0.00	30.019 
08:30	21.6	21.6	21.6	57	8.8	1	3	248	0.00	30.022 
08:35	21.8	21.8	21.8	57	8.9	1	4	248	0.00	30.022 
08:40	21.9	21.9	21.9	57	9.0	0	3	248	0.00	30.022 
08:45	22.1	22.1	22.1	56	8.8	1	3	248	0.00	30.028 
08:50	22.2	22.2	22.2	56	8.9	0	4	248	0.00	30.028 
08:55	22.2	22.2	22.2	56	8.9	0	2	248	0.00	30.028 
09:00	22.4	22.4	22.4	56	9.1	1	5	248	0.00	30.025 
09:05	22.7	22.7	22.7	56	9.4	1	5	248	0.00	30.025 
09:10	23.0	23.0	23.0	56	9.7	1	3	248	0.00	30.025 
09:15	23.3	23.3	23.3	56	10.0	1	7	248	0.00	30.025 
09:20	23.8	23.8	23.8	55	10.0	2	6	248	0.00	30.025 
09:25	24.1	24.1	24.1	54	9.9	1	4	248	0.00	30.025 
09:30	24.2	24.2	24.2	54	10.0	2	7	248	0.00	30.021 
09:35	24.4	24.4	24.4	54	10.2	1	4	248	0.00	30.021 
09:40	24.5	24.5	24.5	54	10.3	1	5	270	0.00	30.021 
09:45	24.7	24.7	24.7	54	10.5	2	9	292	0.00	30.023 
09:50	24.8	24.8	24.8	54	10.5	2	9	248	0.00	30.023 
09:55	24.8	24.8	24.8	54	10.5	2	6	248	0.00	30.023 
10:00	25.0	25.0	25.0	54	10.7	2	9	248	0.00	30.030 
10:05	25.0	25.0	25.0	54	10.7	3	6	248	0.00	30.030 
10:10	24.8	24.8	24.8	54	10.5	2	7	248	0.00	30.030 
10:15	24.7	24.7	24.7	54	10.5	2	6	248	0.00	30.035 
10:20	24.7	24.7	24.7	55	10.9	3	13	248	0.00	30.035 
10:25	24.7	24.7	24.7	56	11.3	2	7	248	0.00	30.035 
10:30	24.7	24.7	24.7	55	10.9	3	15	248	0.00	30.035 
10:35	24.8	24.8	24.8	56	11.4	1	4	248	0.00	30.035 
10:40	25.0	25.0	25.0	56	11.5	2	7	270	0.00	30.035 
10:45	25.3	25.3	25.3	56	11.8	2	7	248	0.00	30.036 
10:50	25.4	25.4	25.4	56	11.9	2	5	248	0.00	30.036 
10:55	25.4	25.4	25.4	56	11.9	2	6	248	0.00	30.036 
11:00	25.6	25.6	25.6	56	12.1	2	9	248	0.00	30.037 
11:05	25.6	25.6	25.6	56	12.1	3	10	270	0.00	30.037 
11:10	25.7	25.7	25.7	56	12.2	2	5	270	0.00	30.037 
11:15	25.8	25.8	25.8	56	12.3	3	9	248	0.00	30.034 
11:20	25.8	25.8	25.8	56	12.3	2	6	270	0.00	30.034 
11:25	26.0	26.0	26.0	56	12.5	3	6	248	0.00	30.034 
11:30	26.0	26.0	26.0	56	12.5	3	10	248	0.00	30.032 
11:35	26.1	26.1	26.1	56	12.6	2	6	248	0.00	30.032 
11:40	26.4	26.4	26.4	56	12.9	1	5	248	0.00	30.032 
11:45	26.6	26.6	26.6	56	13.0	2	6	248	0.00	30.027 
11:50	26.7	26.7	26.7	56	13.1	1	6	248	0.00	30.027 
11:55	27.2	27.2	27.2	55	13.2	2	9	248	0.00	30.027 
12:00	27.3	27.3	27.3	56	13.7	2	5	248	0.00	30.016 
12:05	27.3	27.3	27.3	56	13.7	2	10	248	0.00	30.016 
12:10	27.5	27.5	27.5	56	13.9	1	4	270	0.00	30.016 
12:15	27.6	27.6	27.6	56	14.0	2	5	248	0.00	30.009 
12:20	27.8	27.8	27.8	56	14.2	3	8	270	0.00	30.009 
12:25	27.9	27.9	27.9	56	14.3	2	9	248	0.00	30.009 
12:30	28.4	28.4	28.4	55	14.3	2	6	248	0.00	29.999 
12:35	28.8	28.8	28.8	55	14.7	1	8	248	0.00	29.999 
12:40	29.3	29.3	29.3	55	15.2	1	5	248	0.00	29.999 
12:45	29.8	29.8	29.8	54	15.2	2	9	248	0.00	29.996 
12:50	30.3	30.3	30.3	54	15.7	2	5	248	0.00	29.996 
12:55	30.6	30.6	30.6	54	16.0	3	8	248	0.00	29.996 
13:00	30.7	30.7	30.7	53	15.6	3	7	248	0.00	29.982 
13:05	30.6	30.6	30.6	54	16.0	2	6	248	0.00	29.982 
13:10	30.6	30.6	30.6	53	15.5	2	5	248	0.00	29.982 
13:15	30.4	30.4	30.4	53	15.3	2	5	270	0.00	29.978 
13:20	30.0	30.0	30.0	54	15.4	2	9	248	0.00	29.978 
13:25	29.7	29.7	29.7	54	15.1	3	9	248	0.00	29.978 
13:30	29.7	29.7	29.7	55	15.5	2	9	248	0.01	29.970 
13:35	29.7	29.7	29.7	55	15.5	2	7	270	0.00	29.970 
13:40	30.0	30.0	30.0	55	15.8	2	6	248	0.00	29.970 
13:45	30.1	30.1	30.1	54	15.5	2	7	270	0.00	29.971 
13:50	30.3	30.3	30.3	54	15.7	2	7	248	0.00	29.971 
13:55	30.6	30.6	30.6	55	16.4	1	10	225	0.00	29.971 
14:00	31.0	31.0	31.0	55	16.8	1	4	270	0.00	29.967 
14:05	31.2	31.2	31.2	54	16.5	1	6	248	0.00	29.967 
14:10	31.5	31.5	31.5	54	16.8	1	5	248	0.00	29.967 
14:15	31.5	31.5	31.5	54	16.8	2	7	248	0.00	29.965 
14:20	31.8	31.8	31.8	54	17.1	1	5	248	0.00	29.965 
14:25	32.2	32.2	32.2	54	17.4	1	6	248	0.00	29.965 
14:30	32.7	32.7	32.7	54	17.9	2	5	248	0.00	29.967 
14:35	33.1	33.1	33.1	53	17.9	2	7	248	0.00	29.967 
14:40	33.2	33.2	33.2	53	17.9	2	5	270	0.00	29.967 
14:45	33.4	33.4	33.4	53	18.1	2	7	248	0.00	29.969 
14:50	33.2	33.2	33.2	53	17.9	2	7	248	0.00	29.969 
14:55	33.4	33.4	33.4	54	18.6	0	2	248	0.00	29.969 
15:00	33.4	33.4	33.4	53	18.1	1	5	248	0.00	29.974 
15:05	33.4	33.4	33.4	54	18.6	1	6	270	0.00	29.974 
15:10	33.5	33.5	33.5	54	18.7	1	4	248	0.00	29.974 
15:15	33.5	33.5	33.5	53	18.2	1	5	248	0.00	29.975 
15:20	33.2	33.2	33.2	54	18.4	1	5	248	0.01	29.975 
15:25	33.1	33.1	33.1	54	18.3	1	5	270	0.00	29.975 
15:30	33.1	33.1	33.1	54	18.3	1	5	248	0.00	29.979 
15:35	32.9	32.9	32.9	54	18.1	1	5	248	0.00	29.979 
15:40	32.9	32.9	32.9	55	18.5	1	6	248	0.00	29.979 
15:45	32.9	32.9	32.9	55	18.5	1	7	248	0.00	29.981 
15:50	32.9	32.9	32.9	55	18.5	1	3	270	0.00	29.981 
15:55	33.1	33.1	33.1	56	19.1	1	4	248	0.00	29.981 
16:00	33.1	33.1	33.1	55	18.7	2	9	248	0.01	29.991 
16:05	33.1	33.1	33.1	55	18.7	1	3	248	0.00	29.991 
16:10	33.2	33.2	33.2	55	18.8	1	4	248	0.00	29.991 
16:15	33.2	33.2	33.2	55	18.8	1	4	270	0.00	29.995 
16:20	33.2	33.2	33.2	55	18.8	1	5	248	0.00	29.995 
16:25	33.2	33.2	33.2	55	18.8	0	2	248	0.00	29.995 
16:30	32.9	32.9	32.9	55	18.5	1	4	248	0.00	29.997 
16:35	32.7	32.7	32.7	55	18.3	0	3	225	0.00	29.997 
16:40	32.5	32.5	32.5	55	18.2	1	5	248	0.00	29.997 
16:45	32.4	32.4	32.4	55	18.1	1	6	248	0.01	30.000 
16:50	32.2	32.2	32.2	56	18.3	0	2	248	0.00	30.000 
16:55	32.1	32.1	32.1	57	18.6	0	2	248	0.00	30.000 
17:00	31.9	31.9	31.9	57	18.4	0	3	225	0.00	30.002 
17:05	31.8	31.8	31.8	57	18.3	0	2	225	0.00	30.002 
17:10	31.8	31.8	31.8	57	18.3	0	3	248	0.00	30.002 
17:15	31.6	31.6	31.6	58	18.5	0	1	248	0.00	29.998 
17:20	31.6	31.6	31.6	58	18.5	0	2	248	0.00	29.998 
17:25	31.5	31.5	31.5	58	18.4	0	2	248	0.00	29.998 
17:30	31.5	31.5	31.5	59	18.8	0	1	248	0.00	29.994 
17:35	31.5	31.5	31.5	59	18.8	0	1	248	0.00	29.994 
17:40	31.5	31.5	31.5	59	18.8	0	1	248	0.00	29.994 
17:45	31.5	31.5	31.5	59	18.8	0	2	248	0.00	30.001 
17:50	31.5	31.5	31.5	59	18.8	0	1	248	0.00	30.001 
17:55	31.5	31.5	31.5	60	19.2	0	1	248	0.00	30.001 
18:00	31.5	31.5	31.5	60	19.2	0	1	248	0.00	30.005 
18:05	31.5	31.5	31.5	60	19.2	0	2	248	0.00	30.005 
18:10	31.5	31.5	31.5	61	19.6	0	1	248	0.00	30.005 
18:15	31.5	31.5	31.5	61	19.6	0	1	248	0.00	30.008 
18:20	31.5	31.5	31.5	61	19.6	0	1	248	0.00	30.008 
18:25	31.3	31.3	31.3	61	19.4	0	1	248	0.00	30.008 
18:30	31.3	31.3	31.3	60	19.0	0	1	248	0.00	30.015 
18:35	31.3	31.3	31.3	61	19.4	0	5	112	0.00	30.015 
18:40	31.2	31.2	31.2	61	19.3	0	1	112	0.00	30.015 
18:45	31.2	31.2	31.2	62	19.7	0	1	112	0.00	30.021 
18:50	31.0	31.0	31.0	62	19.5	0	1	112	0.00	30.021 
18:55	31.0	31.0	31.0	62	19.5	0	1	112	0.00	30.021 
19:00	30.9	30.9	30.9	62	19.4	0	1	112	0.00	30.022 
19:05	30.7	30.7	30.7	63	19.6	0	0	---	0.00	30.022 
19:10	30.6	30.6	30.6	63	19.5	0	0	---	0.00	30.022 
19:15	30.4	30.4	30.4	63	19.3	0	1	112	0.00	30.026 
19:20	30.6	30.6	30.6	63	19.5	0	1	112	0.00	30.026 
19:25	30.6	30.6	30.6	63	19.5	0	0	---	0.00	30.026 
19:30	30.6	30.6	30.6	64	19.9	0	1	112	0.00	30.024 
19:35	30.6	30.6	30.6	64	19.9	0	1	112	0.00	30.024 
19:40	30.6	30.6	30.6	64	19.9	0	1	112	0.00	30.024 
19:45	30.6	30.6	30.6	64	19.9	0	1	112	0.00	30.025 
19:50	30.7	30.7	30.7	64	20.0	0	2	112	0.00	30.025 
19:55	30.7	30.7	30.7	64	20.0	0	1	112	0.00	30.025 
20:00	30.9	30.9	30.9	64	20.2	0	1	112	0.00	30.028 
20:05	30.9	30.9	30.9	64	20.2	0	1	112	0.00	30.028 
20:10	31.0	31.0	31.0	64	20.3	0	1	112	0.00	30.028 
20:15	31.0	31.0	31.0	64	20.3	0	1	112	0.00	30.033 
20:20	31.2	31.2	31.2	63	20.1	0	1	112	0.00	30.033 
20:25	31.2	31.2	31.2	63	20.1	0	2	112	0.00	30.033 
20:30	31.3	31.3	31.3	64	20.6	0	1	112	0.00	30.035 
20:35	31.3	31.3	31.3	64	20.6	0	1	112	0.00	30.035 
20:40	31.5	31.5	31.5	64	20.7	0	1	112	0.00	30.035 
20:45	31.5	31.5	31.5	64	20.7	0	1	112	0.00	30.032 
20:50	31.5	31.5	31.5	64	20.7	0	1	112	0.00	30.032 
20:55	31.5	31.5	31.5	64	20.7	0	1	112	0.00	30.032 
21:00	31.5	31.5	31.5	64	20.7	0	1	112	0.00	30.030 
21:05	31.5	31.5	31.5	65	21.1	0	0	---	0.00	30.030 
21:10	31.5	31.5	31.5	65	21.1	0	1	112	0.00	30.030 
21:15	31.5	31.5	31.5	65	21.1	0	0	---	0.00	30.021 
21:20	31.5	31.5	31.5	65	21.1	0	0	---	0.00	30.021 
21:25	31.3	31.3	31.3	65	20.9	0	1	112	0.00	30.021 
21:30	31.3	31.3	31.3	65	20.9	0	0	---	0.00	30.022 
21:35	31.3	31.3	31.3	66	21.3	0	0	---	0.00	30.022 
21:40	31.3	31.3	31.3	66	21.3	0	0	---	0.00	30.022 
21:45	31.2	31.2	31.2	66	21.2	0	0	---	0.00	30.027 
21:50	31.2	31.2	31.2	66	21.2	0	0	---	0.00	30.027 
21:55	31.2	31.2	31.2	66	21.2	0	0	---	0.00	30.027 
22:00	31.2	31.2	31.2	66	21.2	0	0	---	0.00	30.027 
22:05	31.0	31.0	31.0	67	21.3	0	0	---	0.00	30.027 
22:10	31.0	31.0	31.0	67	21.3	0	0	---	0.00	30.027 
22:15	31.0	31.0	31.0	67	21.3	0	0	---	0.00	30.026 
22:20	31.0	31.0	31.0	67	21.3	0	1	112	0.00	30.026 
22:25	31.2	31.2	31.2	67	21.5	0	0	---	0.00	30.026 
22:30	31.3	31.3	31.3	67	21.6	0	0	---	0.00	30.026 
22:35	31.3	31.3	31.3	67	21.6	0	0	---	0.00	30.026 
22:40	31.3	31.3	31.3	67	21.6	0	0	---	0.00	30.026 
22:45	31.3	31.3	31.3	68	22.0	0	0	---	0.00	30.029 
22:50	31.2	31.2	31.2	68	21.9	0	0	---	0.00	30.029 
22:55	31.2	31.2	31.2	68	21.9	0	1	112	0.00	30.029 
23:00	31.3	31.3	31.3	68	22.0	0	0	---	0.00	30.029 
23:05	31.3	31.3	31.3	68	22.0	0	1	112	0.00	30.029 
23:10	31.5	31.5	31.5	67	21.8	0	1	112	0.00	30.029 
23:15	31.6	31.6	31.6	67	21.9	0	1	112	0.00	30.023 
23:20	31.6	31.6	31.6	67	21.9	0	2	112	0.00	30.023 
23:25	31.8	31.8	31.8	67	22.1	0	1	112	0.00	30.023 
23:30	32.1	32.1	32.1	67	22.4	0	3	112	0.00	30.020 
23:35	32.2	32.2	32.2	68	22.8	0	1	112	0.00	30.020 
23:40	32.7	32.7	32.7	68	23.3	0	2	112	0.00	30.020 
23:45	32.9	32.9	32.9	68	23.5	0	2	112	0.00	30.017 
23:50	33.1	33.1	33.1	68	23.7	0	1	112	0.00	30.017 
23:55	33.4	33.4	33.4	69	24.3	0	2	112	0.00	30.017 

CoCoRaHS
IN-AL-39
A2 Web Hosting
Creative Commons License
GoDaddy
search engine by freefind advanced

loaded 2018-11-12 20:14:57 • last modified 2010-11-18 10:43:29
Privacy PolicyDisclaimer
• wx.awcolley.com is powered by PmWiki v.2002016 •
• all content (unless otherwise noted) © 2018 A W Colley